sensor_id;sensor_type;location;lat;lon;timestamp;temperature;humidity
1594;DHT22;790;47.000;16.084;2024-01-10T00:00:48;0.50;99.90
1594;DHT22;790;47.000;16.084;2024-01-10T00:07:11;0.50;99.90
1594;DHT22;790;47.000;16.084;2024-01-10T00:13:34;0.60;99.90
1594;DHT22;790;47.000;16.084;2024-01-10T00:19:57;0.60;99.90
1594;DHT22;790;47.000;16.084;2024-01-10T00:26:20;0.50;99.90
1594;DHT22;790;47.000;16.084;2024-01-10T00:32:43;0.50;99.90
1594;DHT22;790;47.000;16.084;2024-01-10T00:39:06;0.50;99.90
1594;DHT22;790;47.000;16.084;2024-01-10T00:45:29;0.50;99.90
1594;DHT22;790;47.000;16.084;2024-01-10T00:51:51;0.50;99.90
1594;DHT22;790;47.000;16.084;2024-01-10T01:02:58;0.60;99.90
1594;DHT22;790;47.000;16.084;2024-01-10T01:09:21;0.50;99.90
1594;DHT22;790;47.000;16.084;2024-01-10T01:15:43;0.60;99.90
1594;DHT22;790;47.000;16.084;2024-01-10T01:22:06;0.50;99.90
1594;DHT22;790;47.000;16.084;2024-01-10T01:28:29;0.50;99.90
1594;DHT22;790;47.000;16.084;2024-01-10T01:34:53;0.60;99.90
1594;DHT22;790;47.000;16.084;2024-01-10T01:41:17;0.60;99.90
1594;DHT22;790;47.000;16.084;2024-01-10T01:47:40;0.30;99.90
1594;DHT22;790;47.000;16.084;2024-01-10T01:54:06;0.20;99.90
1594;DHT22;790;47.000;16.084;2024-01-10T02:05:13;-0.20;99.90
1594;DHT22;790;47.000;16.084;2024-01-10T02:11:36;-0.50;99.90
1594;DHT22;790;47.000;16.084;2024-01-10T02:18:08;-0.70;99.90
1594;DHT22;790;47.000;16.084;2024-01-10T02:24:34;-1.00;99.90
1594;DHT22;790;47.000;16.084;2024-01-10T02:30:59;-1.20;99.90
1594;DHT22;790;47.000;16.084;2024-01-10T02:37:22;-1.10;99.90
1594;DHT22;790;47.000;16.084;2024-01-10T02:43:44;-1.20;99.90
1594;DHT22;790;47.000;16.084;2024-01-10T02:50:09;-1.40;99.90
1594;DHT22;790;47.000;16.084;2024-01-10T02:56:32;-1.50;99.90
1594;DHT22;790;47.000;16.084;2024-01-10T03:07:49;-1.70;99.90
1594;DHT22;790;47.000;16.084;2024-01-10T03:14:33;-1.80;99.90
1594;DHT22;790;47.000;16.084;2024-01-10T03:20:55;-1.90;99.90
1594;DHT22;790;47.000;16.084;2024-01-10T03:27:18;-2.00;99.90
1594;DHT22;790;47.000;16.084;2024-01-10T03:33:41;-2.10;99.90
1594;DHT22;790;47.000;16.084;2024-01-10T03:40:03;-2.20;99.90
1594;DHT22;790;47.000;16.084;2024-01-10T03:46:28;-2.20;99.90
1594;DHT22;790;47.000;16.084;2024-01-10T03:52:50;-2.30;99.90
1594;DHT22;790;47.000;16.084;2024-01-10T03:59:14;-2.40;99.90
1594;DHT22;790;47.000;16.084;2024-01-10T04:10:14;-2.50;99.90
1594;DHT22;790;47.000;16.084;2024-01-10T04:16:37;-2.50;99.90
1594;DHT22;790;47.000;16.084;2024-01-10T04:23:00;-2.60;99.90
1594;DHT22;790;47.000;16.084;2024-01-10T04:29:23;-2.70;99.90
1594;DHT22;790;47.000;16.084;2024-01-10T04:35:46;-2.70;99.90
1594;DHT22;790;47.000;16.084;2024-01-10T04:42:08;-2.70;99.90
1594;DHT22;790;47.000;16.084;2024-01-10T04:48:33;-2.70;99.90
1594;DHT22;790;47.000;16.084;2024-01-10T04:54:56;-2.80;99.90
1594;DHT22;790;47.000;16.084;2024-01-10T05:01:19;-2.90;99.90
1594;DHT22;790;47.000;16.084;2024-01-10T05:12:28;-3.00;99.90
1594;DHT22;790;47.000;16.084;2024-01-10T05:18:50;-3.00;99.90
1594;DHT22;790;47.000;16.084;2024-01-10T05:25:12;-3.10;99.90
1594;DHT22;790;47.000;16.084;2024-01-10T05:31:36;-3.20;99.90
1594;DHT22;790;47.000;16.084;2024-01-10T05:37:58;-3.20;99.90
1594;DHT22;790;47.000;16.084;2024-01-10T05:44:20;-3.30;99.90
1594;DHT22;790;47.000;16.084;2024-01-10T05:50:43;-3.30;99.90
1594;DHT22;790;47.000;16.084;2024-01-10T05:57:06;-3.20;99.90
1594;DHT22;790;47.000;16.084;2024-01-10T06:03:28;-3.30;99.90
1594;DHT22;790;47.000;16.084;2024-01-10T06:14:38;-3.30;99.90
1594;DHT22;790;47.000;16.084;2024-01-10T06:21:00;-3.40;99.90
1594;DHT22;790;47.000;16.084;2024-01-10T06:27:22;-3.40;99.90
1594;DHT22;790;47.000;16.084;2024-01-10T06:33:45;-3.40;99.90
1594;DHT22;790;47.000;16.084;2024-01-10T06:40:09;-3.50;99.90
1594;DHT22;790;47.000;16.084;2024-01-10T06:46:32;-3.60;99.90
1594;DHT22;790;47.000;16.084;2024-01-10T06:52:56;-3.60;99.90
1594;DHT22;790;47.000;16.084;2024-01-10T06:59:18;-3.60;99.90
1594;DHT22;790;47.000;16.084;2024-01-10T07:05:40;-3.60;99.90
1594;DHT22;790;47.000;16.084;2024-01-10T07:16:51;-3.50;99.90
1594;DHT22;790;47.000;16.084;2024-01-10T07:23:17;-3.50;99.90
1594;DHT22;790;47.000;16.084;2024-01-10T07:29:40;-3.50;99.90
1594;DHT22;790;47.000;16.084;2024-01-10T07:36:04;-3.30;99.90
1594;DHT22;790;47.000;16.084;2024-01-10T07:42:27;-3.00;99.90
1594;DHT22;790;47.000;16.084;2024-01-10T07:48:49;-2.90;99.90
1594;DHT22;790;47.000;16.084;2024-01-10T07:55:13;-2.70;99.90
1594;DHT22;790;47.000;16.084;2024-01-10T08:01:36;-2.60;99.90
1594;DHT22;790;47.000;16.084;2024-01-10T08:07:59;-2.40;99.90
1594;DHT22;790;47.000;16.084;2024-01-10T08:19:08;-2.30;99.90
1594;DHT22;790;47.000;16.084;2024-01-10T08:25:31;-2.20;99.90
1594;DHT22;790;47.000;16.084;2024-01-10T08:31:53;-2.10;99.90
1594;DHT22;790;47.000;16.084;2024-01-10T08:38:17;-2.00;99.90
1594;DHT22;790;47.000;16.084;2024-01-10T08:44:39;-1.90;99.90
1594;DHT22;790;47.000;16.084;2024-01-10T08:51:02;-1.90;99.90
1594;DHT22;790;47.000;16.084;2024-01-10T08:57:27;-1.90;99.90
1594;DHT22;790;47.000;16.084;2024-01-10T09:03:50;-1.80;99.90
1594;DHT22;790;47.000;16.084;2024-01-10T09:10:12;-1.90;99.90
1594;DHT22;790;47.000;16.084;2024-01-10T09:21:21;-1.70;99.90
1594;DHT22;790;47.000;16.084;2024-01-10T09:27:43;-1.60;99.90
1594;DHT22;790;47.000;16.084;2024-01-10T09:34:05;-1.50;99.90
1594;DHT22;790;47.000;16.084;2024-01-10T09:44:23;-1.30;99.90
1594;DHT22;790;47.000;16.084;2024-01-10T09:50:47;-1.10;99.90
1594;DHT22;790;47.000;16.084;2024-01-10T09:57:11;-1.00;99.90
1594;DHT22;790;47.000;16.084;2024-01-10T10:03:38;-0.80;99.90
1594;DHT22;790;47.000;16.084;2024-01-10T10:10:04;-0.80;99.90
1594;DHT22;790;47.000;16.084;2024-01-10T10:20:23;-0.30;99.90
1594;DHT22;790;47.000;16.084;2024-01-10T10:26:46;-0.20;99.90
1594;DHT22;790;47.000;16.084;2024-01-10T10:33:09;0.00;99.90
1594;DHT22;790;47.000;16.084;2024-01-10T10:39:33;0.10;99.90
1594;DHT22;790;47.000;16.084;2024-01-10T10:45:56;0.20;99.90
1594;DHT22;790;47.000;16.084;2024-01-10T10:52:18;0.30;99.90
1594;DHT22;790;47.000;16.084;2024-01-10T10:58:43;0.40;99.90
1594;DHT22;790;47.000;16.084;2024-01-10T11:05:06;0.30;99.90
1594;DHT22;790;47.000;16.084;2024-01-10T11:11:41;0.40;99.90
1594;DHT22;790;47.000;16.084;2024-01-10T11:22:47;0.80;99.90
1594;DHT22;790;47.000;16.084;2024-01-10T11:29:15;1.00;99.90
1594;DHT22;790;47.000;16.084;2024-01-10T11:35:36;1.10;99.90
1594;DHT22;790;47.000;16.084;2024-01-10T11:42:01;1.30;99.90
1594;DHT22;790;47.000;16.084;2024-01-10T11:48:27;1.40;99.90
1594;DHT22;790;47.000;16.084;2024-01-10T11:54:49;1.50;99.90
1594;DHT22;790;47.000;16.084;2024-01-10T12:01:25;1.50;99.90
1594;DHT22;790;47.000;16.084;2024-01-10T12:07:51;1.60;99.90
1594;DHT22;790;47.000;16.084;2024-01-10T12:14:14;1.70;99.90
1594;DHT22;790;47.000;16.084;2024-01-10T12:25:32;1.70;99.90
1594;DHT22;790;47.000;16.084;2024-01-10T12:31:54;1.80;99.90
1594;DHT22;790;47.000;16.084;2024-01-10T12:38:17;1.80;99.90
1594;DHT22;790;47.000;16.084;2024-01-10T12:44:45;1.90;99.90
1594;DHT22;790;47.000;16.084;2024-01-10T12:51:08;1.80;99.90
1594;DHT22;790;47.000;16.084;2024-01-10T12:57:31;1.90;99.90
1594;DHT22;790;47.000;16.084;2024-01-10T13:03:56;1.90;99.90
1594;DHT22;790;47.000;16.084;2024-01-10T13:10:19;1.80;99.90
1594;DHT22;790;47.000;16.084;2024-01-10T13:16:41;1.80;99.90
1594;DHT22;790;47.000;16.084;2024-01-10T13:27:59;1.60;99.90
1594;DHT22;790;47.000;16.084;2024-01-10T13:34:21;1.70;99.90
1594;DHT22;790;47.000;16.084;2024-01-10T13:40:43;1.70;99.90
1594;DHT22;790;47.000;16.084;2024-01-10T13:47:08;1.70;99.90
1594;DHT22;790;47.000;16.084;2024-01-10T13:53:30;1.70;99.90
1594;DHT22;790;47.000;16.084;2024-01-10T13:59:53;1.60;99.90
1594;DHT22;790;47.000;16.084;2024-01-10T14:06:18;1.60;99.90
1594;DHT22;790;47.000;16.084;2024-01-10T14:12:40;1.50;99.90
1594;DHT22;790;47.000;16.084;2024-01-10T14:19:03;1.50;99.90
1594;DHT22;790;47.000;16.084;2024-01-10T14:30:21;1.30;99.90
1594;DHT22;790;47.000;16.084;2024-01-10T14:36:45;1.30;99.90
1594;DHT22;790;47.000;16.084;2024-01-10T14:43:07;1.10;99.90
1594;DHT22;790;47.000;16.084;2024-01-10T14:49:31;1.00;99.90
1594;DHT22;790;47.000;16.084;2024-01-10T14:55:54;1.00;99.90
1594;DHT22;790;47.000;16.084;2024-01-10T15:02:16;0.80;99.90
1594;DHT22;790;47.000;16.084;2024-01-10T15:08:42;0.70;99.90
1594;DHT22;790;47.000;16.084;2024-01-10T15:15:05;0.50;99.90
1594;DHT22;790;47.000;16.084;2024-01-10T15:21:27;0.30;99.90
1594;DHT22;790;47.000;16.084;2024-01-10T15:32:49;0.30;99.90
1594;DHT22;790;47.000;16.084;2024-01-10T15:39:11;0.10;99.90
1594;DHT22;790;47.000;16.084;2024-01-10T15:45:34;0.00;99.90
1594;DHT22;790;47.000;16.084;2024-01-10T15:51:58;-0.20;99.90
1594;DHT22;790;47.000;16.084;2024-01-10T15:58:21;-0.30;99.90
1594;DHT22;790;47.000;16.084;2024-01-10T16:04:43;-0.40;99.90
1594;DHT22;790;47.000;16.084;2024-01-10T16:11:08;-0.50;99.90
1594;DHT22;790;47.000;16.084;2024-01-10T16:17:31;-0.60;99.90
1594;DHT22;790;47.000;16.084;2024-01-10T16:23:53;-0.80;99.90
1594;DHT22;790;47.000;16.084;2024-01-10T16:35:12;-0.80;99.90
1594;DHT22;790;47.000;16.084;2024-01-10T16:41:35;-1.00;99.90
1594;DHT22;790;47.000;16.084;2024-01-10T16:47:57;-1.10;99.90
1594;DHT22;790;47.000;16.084;2024-01-10T16:54:21;-1.30;99.90
1594;DHT22;790;47.000;16.084;2024-01-10T17:00:44;-1.30;99.90
1594;DHT22;790;47.000;16.084;2024-01-10T17:07:08;-1.30;99.90
1594;DHT22;790;47.000;16.084;2024-01-10T17:13:32;-1.50;99.90
1594;DHT22;790;47.000;16.084;2024-01-10T17:19:54;-1.60;99.90
1594;DHT22;790;47.000;16.084;2024-01-10T17:26:16;-1.60;99.90
1594;DHT22;790;47.000;16.084;2024-01-10T17:37:34;-1.60;99.90
1594;DHT22;790;47.000;16.084;2024-01-10T17:43:56;-1.70;99.90
1594;DHT22;790;47.000;16.084;2024-01-10T17:50:19;-1.80;99.90
1594;DHT22;790;47.000;16.084;2024-01-10T17:56:46;-1.80;99.90
1594;DHT22;790;47.000;16.084;2024-01-10T18:03:08;-1.90;99.90
1594;DHT22;790;47.000;16.084;2024-01-10T18:09:31;-2.00;99.90
1594;DHT22;790;47.000;16.084;2024-01-10T18:15:55;-1.90;99.90
1594;DHT22;790;47.000;16.084;2024-01-10T18:22:18;-2.00;99.90
1594;DHT22;790;47.000;16.084;2024-01-10T18:28:40;-2.00;99.90
1594;DHT22;790;47.000;16.084;2024-01-10T18:39:58;-2.20;99.90
1594;DHT22;790;47.000;16.084;2024-01-10T18:46:20;-2.30;99.90
1594;DHT22;790;47.000;16.084;2024-01-10T18:52:42;-2.40;99.90
1594;DHT22;790;47.000;16.084;2024-01-10T18:59:07;-2.50;99.90
1594;DHT22;790;47.000;16.084;2024-01-10T19:05:29;-2.50;99.90
1594;DHT22;790;47.000;16.084;2024-01-10T19:11:51;-2.50;99.90
1594;DHT22;790;47.000;16.084;2024-01-10T19:18:15;-2.60;99.90
1594;DHT22;790;47.000;16.084;2024-01-10T19:24:37;-2.70;99.90
1594;DHT22;790;47.000;16.084;2024-01-10T19:31:00;-2.70;99.90
1594;DHT22;790;47.000;16.084;2024-01-10T19:42:10;-2.80;99.90
1594;DHT22;790;47.000;16.084;2024-01-10T19:48:32;-2.80;99.90
1594;DHT22;790;47.000;16.084;2024-01-10T19:54:54;-2.90;99.90
1594;DHT22;790;47.000;16.084;2024-01-10T20:01:19;-2.90;99.90
1594;DHT22;790;47.000;16.084;2024-01-10T20:07:40;-2.90;99.90
1594;DHT22;790;47.000;16.084;2024-01-10T20:14:02;-3.00;99.90
1594;DHT22;790;47.000;16.084;2024-01-10T20:20:26;-3.00;99.90
1594;DHT22;790;47.000;16.084;2024-01-10T20:26:49;-3.00;99.90
1594;DHT22;790;47.000;16.084;2024-01-10T20:33:11;-3.10;99.90
1594;DHT22;790;47.000;16.084;2024-01-10T20:44:21;-3.20;99.90
1594;DHT22;790;47.000;16.084;2024-01-10T20:50:43;-3.30;99.90
1594;DHT22;790;47.000;16.084;2024-01-10T20:57:05;-3.30;99.90
1594;DHT22;790;47.000;16.084;2024-01-10T21:03:29;-3.40;99.90
1594;DHT22;790;47.000;16.084;2024-01-10T21:09:52;-3.40;99.90
1594;DHT22;790;47.000;16.084;2024-01-10T21:16:15;-3.40;99.90
1594;DHT22;790;47.000;16.084;2024-01-10T21:22:39;-3.50;99.90
1594;DHT22;790;47.000;16.084;2024-01-10T21:29:01;-3.50;99.90
1594;DHT22;790;47.000;16.084;2024-01-10T21:35:43;-3.50;99.90
1594;DHT22;790;47.000;16.084;2024-01-10T21:46:42;-3.60;99.90
1594;DHT22;790;47.000;16.084;2024-01-10T21:53:05;-3.70;99.90
1594;DHT22;790;47.000;16.084;2024-01-10T21:59:49;-3.60;99.90
1594;DHT22;790;47.000;16.084;2024-01-10T22:06:23;-3.70;99.90
1594;DHT22;790;47.000;16.084;2024-01-10T22:12:48;-3.70;99.90
1594;DHT22;790;47.000;16.084;2024-01-10T22:19:11;-3.60;99.90
1594;DHT22;790;47.000;16.084;2024-01-10T22:25:35;-3.70;99.90
1594;DHT22;790;47.000;16.084;2024-01-10T22:32:16;-3.80;99.90
1594;DHT22;790;47.000;16.084;2024-01-10T22:38:40;-3.90;99.90
1594;DHT22;790;47.000;16.084;2024-01-10T22:49:58;-3.90;99.90
1594;DHT22;790;47.000;16.084;2024-01-10T22:56:20;-3.90;99.90
1594;DHT22;790;47.000;16.084;2024-01-10T23:02:42;-3.90;99.90
1594;DHT22;790;47.000;16.084;2024-01-10T23:09:06;-4.00;99.90
1594;DHT22;790;47.000;16.084;2024-01-10T23:15:28;-4.00;99.90
1594;DHT22;790;47.000;16.084;2024-01-10T23:21:50;-4.10;99.90
1594;DHT22;790;47.000;16.084;2024-01-10T23:28:14;-4.20;99.90
1594;DHT22;790;47.000;16.084;2024-01-10T23:34:36;-4.20;99.90
1594;DHT22;790;47.000;16.084;2024-01-10T23:40:58;-4.20;99.90
1594;DHT22;790;47.000;16.084;2024-01-10T23:52:06;-4.20;99.90
1594;DHT22;790;47.000;16.084;2024-01-10T23:58:28;-4.20;99.90
